Fin-ally — WDG3773 — position and weather

sailwx.info

Track history (hours):
 
Tides and Currents Weather Stations Pressure Air Temp Water Temp Dewpoint Dewpoint Depression Visibility Wind Speed Wind Dir Waves Ship Positions

Fin-ally

More information available from US FCC via Universal Licensing System and Coast Guard Vessel Documentation Center.

Last reported at 2014-Jul-29 14:22 UTC. Time now 2014-Jul-30 15:15 UTC.
Position N 41°20' W 072°11'.

Type: Pleasure craft. MMSI: 367529510.

Date/timePositionNaut miles runAvg speedWind from/ knotsBaromVisibWave heightAir tempDewpointWater temp
2014-Jul-29 14:22N 41°20' W 072°11'  
2014-Jul-23 00:33N 41°20' W 072°11'0 0.0
2014-Jul-22 23:33N 41°20' W 072°11'0 0.0
2014-Jul-22 22:33N 41°20' W 072°11'0 0.0
2014-Jul-22 21:33N 41°20' W 072°11'0 0.0
2014-Jul-22 20:33N 41°20' W 072°11'0 0.0
2014-Jul-22 19:33N 41°20' W 072°11'7 7.5
2014-Jul-22 18:33N 41°14' W 072°05'2423.7
2014-Jul-22 17:33N 40°52' W 071°54'3127.5
2014-Jul-22 16:26N 40°22' W 072°02'5213.3
2014-Jul-22 12:31N 39°30' W 072°10'1 0.6
2014-Jul-22 10:31N 39°30' W 072°12'4 4.4
2014-Jul-22 09:33N 39°28' W 072°07'1 0.6
2014-Jul-22 08:33N 39°28' W 072°06'2 1.6
2014-Jul-22 07:29N 39°29' W 072°08'2 1.5
2014-Jul-22 06:27N 39°29' W 072°10'1 1.0
2014-Jul-22 05:33N 39°29' W 072°11'3 0.9
2014-Jul-22 02:30N 39°30' W 072°15'1 0.7
2014-Jul-22 01:24N 39°30' W 072°16'1 0.3
2014-Jul-21 22:28N 39°30' W 072°14'1 0.6
2014-Jul-21 21:33N 39°31' W 072°14'1 1.4
2014-Jul-21 20:33N 39°32' W 072°16'1 1.9
2014-Jul-21 19:58N 39°31' W 072°15'1 1.4
2014-Jul-21 19:30N 39°31' W 072°15'0 0.1
2014-Jul-21 18:24N 39°31' W 072°15'5 4.7
2014-Jul-21 17:18N 39°32' W 072°09'1315.3
2014-Jul-21 16:27N 39°40' W 071°55'  
Track history (hours):
 
Tides and Currents Weather Stations Pressure Air Temp Water Temp Dewpoint Dewpoint Depression Visibility Wind Speed Wind Dir Waves Ship Positions

Fin-ally

More information available from US FCC via Universal Licensing System and Coast Guard Vessel Documentation Center.

Last reported at 2014-Jul-29 14:22 UTC. Time now 2014-Jul-30 15:15 UTC.
Position N 41°20' W 072°11'.

Type: Pleasure craft. MMSI: 367529510.

Date/timePositionNaut miles runAvg speedWind from/ knotsBaromVisibWave heightAir tempDewpointWater temp
2014-Jul-29 14:22N 41°20' W 072°11'  
2014-Jul-23 00:33N 41°20' W 072°11'0 0.0
2014-Jul-22 23:33N 41°20' W 072°11'0 0.0
2014-Jul-22 22:33N 41°20' W 072°11'0 0.0
2014-Jul-22 21:33N 41°20' W 072°11'0 0.0
2014-Jul-22 20:33N 41°20' W 072°11'0 0.0
2014-Jul-22 19:33N 41°20' W 072°11'7 7.5
2014-Jul-22 18:33N 41°14' W 072°05'2423.7
2014-Jul-22 17:33N 40°52' W 071°54'3127.5
2014-Jul-22 16:26N 40°22' W 072°02'5213.3
2014-Jul-22 12:31N 39°30' W 072°10'1 0.6
2014-Jul-22 10:31N 39°30' W 072°12'4 4.4
2014-Jul-22 09:33N 39°28' W 072°07'1 0.6
2014-Jul-22 08:33N 39°28' W 072°06'2 1.6
2014-Jul-22 07:29N 39°29' W 072°08'2 1.5
2014-Jul-22 06:27N 39°29' W 072°10'1 1.0
2014-Jul-22 05:33N 39°29' W 072°11'3 0.9
2014-Jul-22 02:30N 39°30' W 072°15'1 0.7
2014-Jul-22 01:24N 39°30' W 072°16'1 0.3
2014-Jul-21 22:28N 39°30' W 072°14'1 0.6
2014-Jul-21 21:33N 39°31' W 072°14'1 1.4
2014-Jul-21 20:33N 39°32' W 072°16'1 1.9
2014-Jul-21 19:58N 39°31' W 072°15'1 1.4
2014-Jul-21 19:30N 39°31' W 072°15'0 0.1
2014-Jul-21 18:24N 39°31' W 072°15'5 4.7
2014-Jul-21 17:18N 39°32' W 072°09'1315.3
2014-Jul-21 16:27N 39°40' W 071°55'  

Dump ship's entire track history